createdAt,value
2018-03-03T00:00:58.323Z,55.17
2018-03-03T00:03:27.830Z,55.14
2018-03-03T00:05:56.154Z,55.47
2018-03-03T00:08:24.477Z,55.73
2018-03-03T00:10:53.600Z,55.27
2018-03-03T00:13:21.947Z,55.51
2018-03-03T00:15:51.158Z,56.06
2018-03-03T00:18:19.729Z,55.86
2018-03-03T00:20:48.181Z,55.99
2018-03-03T00:23:16.492Z,56.50
2018-03-03T00:25:45.690Z,56.39
2018-03-03T00:28:14.847Z,56.43
2018-03-03T00:30:43.792Z,56.42
2018-03-03T00:33:12.127Z,56.79
2018-03-03T00:35:40.747Z,56.62
2018-03-03T00:38:09.485Z,56.20
2018-03-03T00:40:37.872Z,56.40
2018-03-03T00:43:06.234Z,56.30
2018-03-03T00:45:34.542Z,56.75
2018-03-03T00:48:03.377Z,56.65
2018-03-03T00:50:31.696Z,56.86
2018-03-03T00:53:00.022Z,56.75
2018-03-03T00:55:29.147Z,56.55
2018-03-03T00:57:57.501Z,56.54
2018-03-03T01:00:25.857Z,56.66
2018-03-03T01:02:54.215Z,56.54
2018-03-03T01:05:22.597Z,56.40
2018-03-03T01:07:50.948Z,56.92
2018-03-03T01:10:19.343Z,58.11
2018-03-03T01:12:47.673Z,57.26
2018-03-03T01:15:16.746Z,57.03
2018-03-03T01:17:45.097Z,56.79
2018-03-03T01:20:13.417Z,56.82
2018-03-03T01:22:42.498Z,57.29
2018-03-03T01:25:10.853Z,57.13
2018-03-03T01:27:39.169Z,57.42
2018-03-03T01:30:08.269Z,56.79
2018-03-03T01:32:37.880Z,56.77
2018-03-03T01:35:06.220Z,57.12
2018-03-03T01:37:34.547Z,56.71
2018-03-03T01:40:02.912Z,56.96
2018-03-03T01:42:31.235Z,56.83
2018-03-03T01:44:59.556Z,56.50
2018-03-03T01:47:28.668Z,56.80
2018-03-03T01:49:57.747Z,56.70
2018-03-03T01:52:26.112Z,57.19
2018-03-03T01:54:54.536Z,57.43
2018-03-03T01:57:22.863Z,57.88
2018-03-03T01:59:51.190Z,58.29
2018-03-03T02:02:19.555Z,57.69
2018-03-03T02:04:48.632Z,57.93
2018-03-03T02:07:16.984Z,57.89
2018-03-03T02:09:45.365Z,57.70
2018-03-03T02:12:13.694Z,57.54
2018-03-03T02:14:42.029Z,58.05
2018-03-03T02:17:10.806Z,57.56
2018-03-03T02:19:39.118Z,57.63
2018-03-03T02:22:07.522Z,57.80
2018-03-03T02:24:35.927Z,57.67
2018-03-03T02:27:04.260Z,57.96
2018-03-03T02:29:32.598Z,58.50
2018-03-03T02:32:00.942Z,58.03
2018-03-03T02:34:29.409Z,58.24
2018-03-03T02:36:58.477Z,58.32
2018-03-03T02:39:27.083Z,58.42
2018-03-03T02:41:56.165Z,58.77
2018-03-03T02:44:24.535Z,58.80
2018-03-03T02:46:52.915Z,59.17
2018-03-03T02:49:21.268Z,59.63
2018-03-03T02:51:49.590Z,59.36
2018-03-03T02:54:18.711Z,58.71
2018-03-03T02:56:47.030Z,59.50
2018-03-03T02:59:15.363Z,59.58
2018-03-03T03:01:43.971Z,59.21
2018-03-03T03:04:12.297Z,59.28
2018-03-03T03:06:40.607Z,59.44
2018-03-03T03:09:08.973Z,59.46
2018-03-03T03:11:38.089Z,59.41
2018-03-03T03:14:06.402Z,59.85
2018-03-03T03:16:34.742Z,59.91
2018-03-03T03:19:03.089Z,59.64
2018-03-03T03:21:31.391Z,59.89
2018-03-03T03:24:00.087Z,59.84
2018-03-03T03:26:28.410Z,59.76
2018-03-03T03:28:56.737Z,60.62
2018-03-03T03:31:25.087Z,60.33
2018-03-03T03:33:53.435Z,60.93
2018-03-03T03:36:21.762Z,60.85
2018-03-03T03:38:50.877Z,60.21
2018-03-03T03:41:19.181Z,60.42
2018-03-03T03:43:47.495Z,60.41
2018-03-03T03:46:16.091Z,60.04
2018-03-03T03:48:45.197Z,60.79
2018-03-03T03:51:14.281Z,59.58
2018-03-03T03:53:42.700Z,60.20
2018-03-03T03:56:11.041Z,60.49
2018-03-03T03:58:40.135Z,60.29
2018-03-03T04:01:08.485Z,60.06
2018-03-03T04:03:36.828Z,60.31
2018-03-03T04:06:05.167Z,59.90
2018-03-03T04:08:33.849Z,60.03
2018-03-03T04:11:02.177Z,59.75
2018-03-03T04:13:30.481Z,59.58
2018-03-03T04:15:58.834Z,59.68
2018-03-03T04:18:27.158Z,59.68
2018-03-03T04:20:55.484Z,59.68
2018-03-03T04:23:23.816Z,60.56
2018-03-03T04:25:52.120Z,60.12
2018-03-03T04:28:21.182Z,60.28
2018-03-03T04:30:49.975Z,60.36
2018-03-03T04:33:18.310Z,60.49
2018-03-03T04:35:46.656Z,60.68
2018-03-03T04:38:15.789Z,60.39
2018-03-03T04:40:44.101Z,60.57
2018-03-03T04:43:12.419Z,60.49
2018-03-03T04:45:40.776Z,60.55
2018-03-03T04:48:09.282Z,60.81
2018-03-03T04:50:38.373Z,61.19
2018-03-03T04:53:07.623Z,61.06
2018-03-03T04:55:35.948Z,60.55
2018-03-03T04:58:04.299Z,60.39
2018-03-03T05:00:35.426Z,60.37
2018-03-03T05:03:09.230Z,60.28
2018-03-03T05:05:42.896Z,60.47
2018-03-03T05:08:16.494Z,61.40
2018-03-03T05:10:45.365Z,61.25
2018-03-03T05:16:24.832Z,61.05
2018-03-03T05:18:59.420Z,61.71
2018-03-03T05:21:36.244Z,61.10
2018-03-03T05:27:12.777Z,62.05
2018-03-03T05:29:47.307Z,61.80
2018-03-03T05:35:50.762Z,62.27
2018-03-03T05:38:25.512Z,62.61
2018-03-03T05:40:57.360Z,62.65
2018-03-03T05:43:32.116Z,62.69
2018-03-03T05:46:05.891Z,61.92
2018-03-03T05:48:37.055Z,62.46
2018-03-03T05:51:10.763Z,62.94
2018-03-03T05:56:58.949Z,62.02
2018-03-03T06:02:45.092Z,62.33
2018-03-03T06:05:14.602Z,61.87
2018-03-03T06:10:48.470Z,62.61
2018-03-03T06:13:16.786Z,62.25
2018-03-03T06:15:45.097Z,62.17
2018-03-03T06:18:13.713Z,61.94
2018-03-03T06:20:42.021Z,61.87
2018-03-03T06:23:10.348Z,61.43
2018-03-03T06:25:39.461Z,60.62
2018-03-03T06:28:08.553Z,59.64
2018-03-03T06:30:37.629Z,58.63
2018-03-03T06:33:05.988Z,58.04
2018-03-03T06:35:34.301Z,57.60
2018-03-03T06:38:02.645Z,55.94
2018-03-03T06:40:31.304Z,54.86
2018-03-03T06:42:59.624Z,53.94
2018-03-03T06:45:27.976Z,54.04
2018-03-03T06:47:56.348Z,53.30
2018-03-03T06:50:24.704Z,52.55
2018-03-03T06:52:53.028Z,50.62
2018-03-03T06:55:24.829Z,51.32
2018-03-03T06:57:53.163Z,50.59
2018-03-03T07:00:21.508Z,50.13
2018-03-03T07:02:49.968Z,49.64
2018-03-03T07:05:18.300Z,49.16
2018-03-03T07:07:46.677Z,48.16
2018-03-03T07:10:15.019Z,46.74
2018-03-03T07:12:43.348Z,45.06
2018-03-03T07:15:12.951Z,43.50
2018-03-03T07:17:41.295Z,41.17
2018-03-03T07:20:09.644Z,42.92
2018-03-03T07:22:38.747Z,42.40
2018-03-03T07:25:07.371Z,41.54
2018-03-03T07:27:35.682Z,41.19
2018-03-03T07:30:03.987Z,40.59
2018-03-03T07:32:32.333Z,40.46
2018-03-03T07:35:00.669Z,40.32
2018-03-03T07:37:29.003Z,40.03
2018-03-03T07:39:58.136Z,39.83
2018-03-03T07:42:26.447Z,38.56
2018-03-03T07:44:54.907Z,36.84
2018-03-03T07:47:23.748Z,36.25
2018-03-03T07:49:52.048Z,36.24
2018-03-03T07:52:21.140Z,35.80
2018-03-03T07:54:49.501Z,35.52
2018-03-03T07:57:18.669Z,37.47
2018-03-03T07:59:46.997Z,34.84
2018-03-03T08:02:15.340Z,34.32
2018-03-03T08:04:43.664Z,34.57
2018-03-03T08:07:12.022Z,31.52
2018-03-03T08:09:41.183Z,31.67
2018-03-03T08:12:09.499Z,33.00
2018-03-03T08:14:38.595Z,31.87
2018-03-03T08:17:06.963Z,31.39
2018-03-03T08:19:35.485Z,33.57
2018-03-03T08:22:03.819Z,31.71
2018-03-03T08:24:32.936Z,30.89
2018-03-03T08:27:02.011Z,29.98
2018-03-03T08:29:30.339Z,28.66
2018-03-03T08:31:58.755Z,28.67
2018-03-03T08:34:27.064Z,27.56
2018-03-03T08:36:56.147Z,28.14
2018-03-03T08:39:25.267Z,27.22
2018-03-03T08:41:53.608Z,30.09
2018-03-03T08:44:21.911Z,30.01
2018-03-03T08:46:51.085Z,29.24
2018-03-03T08:49:19.380Z,29.89
2018-03-03T08:51:48.471Z,27.48
2018-03-03T08:54:17.844Z,26.82
2018-03-03T08:56:46.157Z,27.99
2018-03-03T08:59:15.245Z,28.47
2018-03-03T09:01:43.579Z,28.01
2018-03-03T09:04:11.896Z,27.01
2018-03-03T09:06:40.195Z,27.64
2018-03-03T09:09:09.308Z,29.07
2018-03-03T09:11:37.629Z,31.76
2018-03-03T09:14:06.214Z,32.45
2018-03-03T09:16:34.748Z,30.44
2018-03-03T09:19:03.844Z,27.32
2018-03-03T09:21:32.140Z,26.25
2018-03-03T09:24:00.487Z,27.35
2018-03-03T09:26:28.831Z,26.56
2018-03-03T09:28:57.155Z,26.28
2018-03-03T09:31:25.508Z,24.71
2018-03-03T09:33:53.834Z,24.39
2018-03-03T09:36:22.156Z,24.49
2018-03-03T09:38:50.933Z,23.82
2018-03-03T09:41:19.241Z,22.99
2018-03-03T09:43:48.309Z,24.16
2018-03-03T09:46:16.654Z,23.81
2018-03-03T09:48:44.993Z,22.67
2018-03-03T09:51:13.313Z,22.00
2018-03-03T09:53:41.643Z,22.93
2018-03-03T09:56:10.000Z,24.76
2018-03-03T09:58:38.310Z,23.15
2018-03-03T10:01:07.692Z,21.22
2018-03-03T10:03:36.025Z,20.39
2018-03-03T10:06:04.340Z,21.51
2018-03-03T10:08:32.689Z,22.46
2018-03-03T10:11:01.003Z,21.78
2018-03-03T10:13:29.401Z,21.00
2018-03-03T10:15:58.520Z,23.45
2018-03-03T10:18:26.848Z,24.10
2018-03-03T10:20:55.168Z,25.00
2018-03-03T10:23:23.704Z,23.54
2018-03-03T10:25:52.008Z,22.59
2018-03-03T10:28:20.334Z,21.32
2018-03-03T10:30:48.677Z,21.33
2018-03-03T10:33:17.022Z,22.33
2018-03-03T10:35:45.352Z,22.64
2018-03-03T10:38:13.928Z,22.20
2018-03-03T10:40:42.264Z,22.69
2018-03-03T10:43:10.584Z,24.19
2018-03-03T10:45:39.448Z,23.00
2018-03-03T10:48:07.765Z,22.63
2018-03-03T10:50:36.111Z,22.83
2018-03-03T10:53:04.535Z,23.37
2018-03-03T10:55:32.845Z,23.03
2018-03-03T10:58:01.186Z,22.55
2018-03-03T11:00:29.519Z,20.45
2018-03-03T11:02:57.829Z,21.70
2018-03-03T11:05:27.847Z,21.58
2018-03-03T11:07:56.719Z,20.58
2018-03-03T11:10:25.862Z,20.15
2018-03-03T11:12:54.188Z,20.32
2018-03-03T11:15:22.516Z,20.51
2018-03-03T11:17:50.886Z,19.05
2018-03-03T11:20:19.229Z,19.55
2018-03-03T11:22:48.392Z,18.72
2018-03-03T11:25:16.748Z,18.57
2018-03-03T11:27:45.069Z,17.51
2018-03-03T11:30:13.491Z,17.29
2018-03-03T11:32:41.867Z,15.89
2018-03-03T11:35:10.209Z,15.53
2018-03-03T11:37:38.586Z,16.91
2018-03-03T11:40:06.915Z,18.25
2018-03-03T11:42:35.252Z,19.77
2018-03-03T11:45:04.391Z,21.60
2018-03-03T11:47:32.736Z,19.81
2018-03-03T11:50:01.863Z,18.74
2018-03-03T11:52:30.830Z,18.80
2018-03-03T11:54:59.178Z,19.25
2018-03-03T11:57:27.532Z,18.38
2018-03-03T11:59:55.916Z,17.78
2018-03-03T12:02:24.236Z,18.91
2018-03-03T12:04:52.579Z,18.11
2018-03-03T12:07:20.945Z,17.26
2018-03-03T12:09:49.268Z,16.97
2018-03-03T12:12:18.360Z,17.42
2018-03-03T12:14:46.760Z,17.51
2018-03-03T12:17:15.829Z,18.59
2018-03-03T12:19:44.190Z,19.11
2018-03-03T12:22:12.560Z,17.70
2018-03-03T12:24:40.902Z,18.58
2018-03-03T12:27:09.218Z,16.50
2018-03-03T12:29:37.551Z,15.78
2018-03-03T12:32:06.639Z,15.95
2018-03-03T12:34:35.748Z,16.91
2018-03-03T12:37:04.181Z,18.42
2018-03-03T12:39:32.505Z,18.92
2018-03-03T12:42:01.616Z,20.06
2018-03-03T12:44:29.940Z,18.59
2018-03-03T12:46:58.272Z,18.21
2018-03-03T12:49:26.577Z,18.12
2018-03-03T12:51:54.973Z,17.99
2018-03-03T12:54:23.328Z,18.57
2018-03-03T12:56:51.650Z,16.51
2018-03-03T12:59:20.061Z,17.11
2018-03-03T13:01:48.396Z,17.58
2018-03-03T13:04:16.747Z,17.64
2018-03-03T13:06:45.097Z,18.01
2018-03-03T13:09:13.506Z,18.38
2018-03-03T13:11:41.927Z,19.57
2018-03-03T13:14:11.074Z,19.66
2018-03-03T13:16:39.409Z,21.23
2018-03-03T13:19:07.726Z,22.22
2018-03-03T13:21:36.137Z,20.80
2018-03-03T13:24:04.461Z,19.19
2018-03-03T13:26:32.872Z,21.38
2018-03-03T13:29:01.214Z,22.08
2018-03-03T13:31:30.318Z,21.67
2018-03-03T13:33:58.690Z,22.10
2018-03-03T13:36:27.812Z,23.61
2018-03-03T13:38:56.124Z,22.45
2018-03-03T13:41:24.504Z,20.37
2018-03-03T13:43:53.082Z,20.71
2018-03-03T13:46:21.428Z,20.63
2018-03-03T13:48:49.872Z,21.85
2018-03-03T13:51:18.252Z,21.38
2018-03-03T13:53:47.454Z,22.10
2018-03-03T13:56:15.797Z,21.54
2018-03-03T13:58:44.185Z,20.37
2018-03-03T14:01:12.590Z,20.59
2018-03-03T14:03:41.669Z,20.67
2018-03-03T14:06:10.462Z,20.29
2018-03-03T14:08:39.569Z,20.81
2018-03-03T14:11:07.897Z,22.38
2018-03-03T14:13:36.311Z,22.49
2018-03-03T14:16:04.648Z,22.56
2018-03-03T14:18:33.003Z,23.16
2018-03-03T14:21:02.128Z,22.76
2018-03-03T14:23:30.458Z,24.05
2018-03-03T14:25:58.778Z,25.31
2018-03-03T14:28:27.523Z,26.37
2018-03-03T14:30:55.853Z,25.59
2018-03-03T14:33:24.198Z,24.12
2018-03-03T14:35:52.550Z,23.60
2018-03-03T14:38:20.894Z,23.97
2018-03-03T14:40:49.297Z,25.21
2018-03-03T14:43:17.686Z,25.71
2018-03-03T14:45:46.045Z,28.21
2018-03-03T14:48:15.148Z,27.52
2018-03-03T14:50:43.571Z,25.98
2018-03-03T14:53:11.935Z,25.15
2018-03-03T14:55:40.296Z,25.03
2018-03-03T14:58:08.697Z,26.29
2018-03-03T15:00:37.076Z,27.31
2018-03-03T15:03:05.443Z,25.53
2018-03-03T15:05:34.555Z,24.71
2018-03-03T15:08:02.958Z,26.58
2018-03-03T15:10:31.331Z,27.14
2018-03-03T15:12:59.800Z,26.99
2018-03-03T15:15:28.171Z,28.13
2018-03-03T15:17:56.513Z,28.00
2018-03-03T15:20:25.636Z,28.85
2018-03-03T15:22:53.989Z,29.20
2018-03-03T15:25:22.357Z,29.07
2018-03-03T15:27:51.491Z,28.40
2018-03-03T15:30:19.842Z,28.03
2018-03-03T15:32:48.302Z,28.08
2018-03-03T15:35:16.800Z,27.84
2018-03-03T15:37:45.291Z,28.05
2018-03-03T15:40:13.620Z,30.21
2018-03-03T15:42:42.755Z,29.00
2018-03-03T15:45:11.873Z,28.86
2018-03-03T15:47:40.228Z,28.71
2018-03-03T15:50:08.630Z,31.23
2018-03-03T15:52:36.993Z,33.83
2018-03-03T15:55:05.302Z,34.58
2018-03-03T15:57:33.889Z,35.06
2018-03-03T16:00:02.229Z,34.61
2018-03-03T16:02:30.562Z,34.81
2018-03-03T16:04:58.940Z,35.26
2018-03-03T16:07:27.275Z,35.57
2018-03-03T16:09:56.386Z,35.93
2018-03-03T16:12:24.815Z,36.73
2018-03-03T16:14:53.165Z,37.25
2018-03-03T16:17:21.551Z,38.00
2018-03-03T16:19:50.205Z,38.27
2018-03-03T16:22:19.572Z,38.13
2018-03-03T16:24:48.731Z,38.35
2018-03-03T16:27:17.093Z,38.68
2018-03-03T16:29:45.528Z,38.84
2018-03-03T16:32:13.869Z,39.76
2018-03-03T16:34:42.221Z,39.67
2018-03-03T16:37:10.578Z,39.89
2018-03-03T16:39:38.940Z,40.40
2018-03-03T16:42:08.543Z,40.83
2018-03-03T16:44:36.899Z,40.93
2018-03-03T16:47:05.242Z,40.69
2018-03-03T16:49:33.624Z,40.91
2018-03-03T16:52:01.996Z,40.87
2018-03-03T16:54:30.901Z,41.19
2018-03-03T16:56:59.589Z,40.96
2018-03-03T16:59:27.903Z,41.28
2018-03-03T17:01:56.247Z,41.16
2018-03-03T17:04:24.764Z,41.67
2018-03-03T17:06:53.127Z,42.01
2018-03-03T17:09:21.465Z,42.78
2018-03-03T17:11:50.629Z,42.49
2018-03-03T17:14:19.001Z,42.33
2018-03-03T17:16:48.110Z,42.88
2018-03-03T17:19:16.512Z,43.18
2018-03-03T17:21:44.880Z,42.84
2018-03-03T17:24:13.223Z,43.29
2018-03-03T17:26:41.672Z,43.22
2018-03-03T17:29:10.021Z,43.00
2018-03-03T17:31:38.398Z,43.05
2018-03-03T17:34:06.844Z,43.17
2018-03-03T17:36:35.194Z,43.07
2018-03-03T17:39:03.566Z,43.29
2018-03-03T17:41:32.010Z,43.41
2018-03-03T17:44:00.361Z,43.89
2018-03-03T17:46:28.727Z,43.97
2018-03-03T17:48:57.174Z,44.44
2018-03-03T17:51:26.316Z,44.34
2018-03-03T17:53:54.693Z,44.80
2018-03-03T17:56:23.071Z,44.40
2018-03-03T17:58:51.462Z,44.09
2018-03-03T18:01:19.827Z,44.48
2018-03-03T18:03:48.250Z,44.89
2018-03-03T18:06:16.579Z,44.97
2018-03-03T18:08:44.959Z,44.74
2018-03-03T18:11:16.182Z,45.25
2018-03-03T18:13:45.301Z,45.53
2018-03-03T18:16:13.687Z,46.46
2018-03-03T18:18:42.061Z,46.38
2018-03-03T18:21:10.409Z,46.48
2018-03-03T18:23:39.527Z,46.68
2018-03-03T18:26:07.944Z,46.39
2018-03-03T18:28:36.830Z,46.29
2018-03-03T18:31:05.209Z,46.62
2018-03-03T18:33:33.703Z,46.83
2018-03-03T18:36:02.037Z,46.92
2018-03-03T18:38:31.147Z,47.29
2018-03-03T18:40:59.544Z,47.54
2018-03-03T18:43:27.909Z,47.00
2018-03-03T18:45:56.295Z,46.71
2018-03-03T18:48:24.708Z,46.98
2018-03-03T18:50:53.055Z,47.50
2018-03-03T18:53:21.404Z,47.40
2018-03-03T18:55:50.657Z,47.05
2018-03-03T18:58:19.039Z,46.97
2018-03-03T19:00:47.417Z,46.79
2018-03-03T19:03:15.804Z,47.22
2018-03-03T19:05:44.214Z,46.73
2018-03-03T19:08:13.316Z,46.74
2018-03-03T19:10:42.470Z,47.00
2018-03-03T19:13:10.903Z,46.68
2018-03-03T19:15:39.270Z,47.34
2018-03-03T19:18:09.024Z,47.47
2018-03-03T19:20:37.348Z,47.14
2018-03-03T19:23:05.697Z,47.24
2018-03-03T19:25:34.085Z,47.65
2018-03-03T19:28:02.482Z,47.10
2018-03-03T19:30:31.674Z,47.07
2018-03-03T19:33:00.837Z,47.80
2018-03-03T19:35:29.208Z,47.91
2018-03-03T19:37:57.571Z,47.93
2018-03-03T19:40:26.581Z,47.72
2018-03-03T19:42:54.956Z,47.50
2018-03-03T19:45:23.326Z,47.50
2018-03-03T19:47:51.700Z,47.68
2018-03-03T19:50:20.037Z,47.55
2018-03-03T19:52:48.394Z,47.56
2018-03-03T19:55:16.822Z,47.63
2018-03-03T19:57:45.955Z,46.97
2018-03-03T20:00:14.352Z,46.88
2018-03-03T20:02:42.827Z,47.56
2018-03-03T20:05:11.285Z,47.28
2018-03-03T20:07:39.700Z,47.45
2018-03-03T20:10:08.266Z,47.26
2018-03-03T20:12:36.644Z,47.62
2018-03-03T20:15:05.013Z,47.27
2018-03-03T20:17:33.486Z,46.90
2018-03-03T20:20:01.999Z,47.67
2018-03-03T20:22:30.408Z,47.44
2018-03-03T20:24:58.954Z,48.14
2018-03-03T20:27:27.307Z,47.55
2018-03-03T20:29:55.711Z,47.63
2018-03-03T20:32:24.104Z,47.65
2018-03-03T20:34:52.480Z,47.85
2018-03-03T20:37:21.580Z,48.16
2018-03-03T20:39:49.939Z,47.51
2018-03-03T20:42:18.262Z,48.00
2018-03-03T20:44:46.636Z,47.96
2018-03-03T20:47:15.030Z,47.93
2018-03-03T20:49:43.387Z,48.01
2018-03-03T20:52:11.741Z,48.15
2018-03-03T20:54:40.127Z,48.38
2018-03-03T20:57:08.449Z,48.19
2018-03-03T20:59:37.198Z,47.59
2018-03-03T21:02:05.561Z,48.67
2018-03-03T21:04:33.884Z,47.99
2018-03-03T21:07:02.229Z,48.63
2018-03-03T21:09:30.765Z,48.75
2018-03-03T21:12:09.775Z,48.45
2018-03-03T21:14:38.913Z,48.62
2018-03-03T21:17:07.275Z,48.43
2018-03-03T21:19:35.659Z,48.64
2018-03-03T21:22:04.820Z,48.83
2018-03-03T21:24:33.164Z,49.02
2018-03-03T21:27:01.580Z,48.95
2018-03-03T21:29:30.532Z,49.80
2018-03-03T21:31:58.862Z,49.35
2018-03-03T21:34:27.225Z,49.67
2018-03-03T21:36:55.673Z,49.44
2018-03-03T21:39:24.069Z,49.23
2018-03-03T21:41:52.442Z,49.50
2018-03-03T21:44:20.795Z,49.59
2018-03-03T21:46:49.141Z,49.52
2018-03-03T21:49:18.289Z,50.11
2018-03-03T21:51:46.712Z,50.06
2018-03-03T21:54:15.077Z,49.46
2018-03-03T21:56:43.431Z,50.10
2018-03-03T21:59:11.813Z,49.65
2018-03-03T22:01:41.253Z,49.92
2018-03-03T22:04:09.575Z,50.43
2018-03-03T22:06:37.945Z,50.27
2018-03-03T22:09:06.292Z,50.18
2018-03-03T22:11:34.650Z,49.81
2018-03-03T22:14:03.562Z,49.88
2018-03-03T22:16:31.963Z,50.25
2018-03-03T22:19:01.067Z,49.86
2018-03-03T22:21:30.197Z,49.84
2018-03-03T22:23:58.539Z,49.92
2018-03-03T22:26:27.649Z,49.70
2018-03-03T22:28:56.012Z,49.84
2018-03-03T22:31:25.122Z,49.86
2018-03-03T22:33:53.450Z,49.82
2018-03-03T22:36:21.864Z,50.00
2018-03-03T22:38:51.012Z,50.43
2018-03-03T22:41:19.357Z,50.52
2018-03-03T22:43:47.756Z,50.48
2018-03-03T22:46:16.156Z,50.30
2018-03-03T22:48:45.318Z,50.85
2018-03-03T22:51:13.674Z,51.01
2018-03-03T22:53:42.811Z,51.15
2018-03-03T22:56:11.177Z,50.59
2018-03-03T22:58:39.954Z,50.63
2018-03-03T23:01:08.304Z,51.11
2018-03-03T23:03:36.816Z,51.32
2018-03-03T23:06:05.171Z,51.35
2018-03-03T23:08:33.531Z,51.54
2018-03-03T23:11:01.887Z,51.32
2018-03-03T23:13:30.270Z,51.86
2018-03-03T23:15:58.602Z,51.86
2018-03-03T23:18:26.958Z,52.01
2018-03-03T23:20:55.516Z,52.01
2018-03-03T23:23:24.641Z,52.40
2018-03-03T23:25:53.760Z,52.63
2018-03-03T23:28:22.860Z,52.10
2018-03-03T23:30:51.203Z,51.76
2018-03-03T23:33:19.542Z,51.87
2018-03-03T23:35:47.927Z,52.03
2018-03-03T23:38:16.284Z,51.90
2018-03-03T23:40:44.646Z,52.22
2018-03-03T23:43:13.204Z,52.41
2018-03-03T23:45:41.545Z,52.01
2018-03-03T23:48:09.905Z,52.61
2018-03-03T23:50:38.265Z,52.54
2018-03-03T23:53:06.625Z,52.68
2018-03-03T23:55:35.744Z,52.67
2018-03-03T23:58:04.109Z,52.64
